createdAt,value
2022-11-23T00:03:15.094Z,229.22
2022-11-23T00:08:15.079Z,230.66
2022-11-23T00:13:14.951Z,232.11
2022-11-23T00:18:14.931Z,230.98
2022-11-23T00:23:14.827Z,228.91
2022-11-23T00:28:14.761Z,228.28
2022-11-23T00:33:14.749Z,227.34
2022-11-23T00:38:14.658Z,226.56
2022-11-23T00:43:14.539Z,230.82
2022-11-23T00:48:14.507Z,232.60
2022-11-23T00:53:14.444Z,230.18
2022-11-23T00:58:14.373Z,231.95
2022-11-23T01:03:14.271Z,235.91
2022-11-23T01:08:39.199Z,236.41
2022-11-23T01:13:31.580Z,234.41
2022-11-23T01:18:31.575Z,233.91
2022-11-23T01:23:31.479Z,234.24
2022-11-23T01:28:31.401Z,234.24
2022-11-23T01:33:34.845Z,234.24
2022-11-23T01:38:31.243Z,231.79
2022-11-23T01:43:31.395Z,230.18
2022-11-23T01:48:31.182Z,230.50
2022-11-23T01:53:31.061Z,227.18
2022-11-23T01:58:31.016Z,229.22
2022-11-23T02:03:30.944Z,231.30
2022-11-23T02:08:30.848Z,231.14
2022-11-23T02:13:30.808Z,235.40
2022-11-23T02:18:30.737Z,235.91
2022-11-23T02:23:30.672Z,233.91
2022-11-23T02:28:30.615Z,229.54
2022-11-23T02:33:30.558Z,227.96
2022-11-23T02:38:30.469Z,230.98
2022-11-23T02:43:30.418Z,228.59
2022-11-23T02:48:30.334Z,226.10
2022-11-23T02:53:30.264Z,226.72
2022-11-23T02:58:30.313Z,227.81
2022-11-23T03:03:30.161Z,226.10
2022-11-23T03:08:30.047Z,223.66
2022-11-23T03:13:30.028Z,224.12
2022-11-23T03:18:29.945Z,224.42
2022-11-23T03:23:29.874Z,223.66
2022-11-23T03:28:29.805Z,223.96
2022-11-23T03:33:29.768Z,224.42
2022-11-23T03:38:29.667Z,225.18
2022-11-23T03:43:29.627Z,225.79
2022-11-23T03:48:29.546Z,225.18
2022-11-23T03:53:29.477Z,225.33
2022-11-23T03:58:29.415Z,226.72
2022-11-23T04:03:29.376Z,230.18
2022-11-23T04:08:29.270Z,231.46
2022-11-23T04:13:29.258Z,232.44
2022-11-23T04:18:29.157Z,233.42
2022-11-23T04:23:29.127Z,234.41
2022-11-23T04:28:29.044Z,235.40
2022-11-23T04:33:28.953Z,234.24
2022-11-23T04:38:28.894Z,235.91
2022-11-23T04:43:28.845Z,237.43
2022-11-23T04:48:28.755Z,233.74
2022-11-23T04:53:28.695Z,231.46
2022-11-23T04:58:31.583Z,231.46
2022-11-23T05:03:29.574Z,228.28
2022-11-23T05:08:28.479Z,225.33
2022-11-23T05:13:28.445Z,225.79
2022-11-23T05:18:37.878Z,227.81
2022-11-23T05:23:30.277Z,228.28
2022-11-23T05:28:40.129Z,223.96
2022-11-23T05:33:31.137Z,220.39
2022-11-23T05:38:30.061Z,216.23
2022-11-23T05:43:30.003Z,213.86
2022-11-23T05:48:29.971Z,211.54
2022-11-23T05:53:29.878Z,209.54
2022-11-23T05:58:29.835Z,207.18
2022-11-23T06:03:29.752Z,207.44
2022-11-23T06:08:29.682Z,207.31
2022-11-23T06:13:29.638Z,206.28
2022-11-23T06:18:29.568Z,204.88
2022-11-23T06:23:29.485Z,204.75
2022-11-23T06:28:29.445Z,205.90
2022-11-23T06:33:29.347Z,205.39
2022-11-23T06:38:29.282Z,205.64
2022-11-23T06:43:29.213Z,204.37
2022-11-23T06:48:29.177Z,204.37
2022-11-23T06:53:29.081Z,204.50
2022-11-23T06:58:29.038Z,203.87
2022-11-23T07:03:28.989Z,204.00
2022-11-23T07:08:28.915Z,204.00
2022-11-23T07:13:28.865Z,203.87
2022-11-23T07:18:28.766Z,205.90
2022-11-23T07:23:28.736Z,208.09
2022-11-23T07:28:28.658Z,211.41
2022-11-23T07:33:28.558Z,213.45
2022-11-23T07:38:28.507Z,215.81
2022-11-23T07:43:28.441Z,218.07
2022-11-23T07:48:33.221Z,218.22
2022-11-23T07:53:29.301Z,217.50
2022-11-23T07:58:28.222Z,217.93
2022-11-23T08:03:29.175Z,219.52
2022-11-23T08:08:28.123Z,222.16
2022-11-23T08:13:28.015Z,225.79
2022-11-23T08:18:27.998Z,226.10
2022-11-23T08:23:27.917Z,225.95
2022-11-23T08:28:27.863Z,229.70
2022-11-23T08:33:27.764Z,227.03
2022-11-23T08:38:27.740Z,227.34
2022-11-23T08:43:27.617Z,228.28
2022-11-23T08:48:27.603Z,229.22
2022-11-23T08:53:27.513Z,231.46
2022-11-23T08:58:27.455Z,231.79
2022-11-23T09:03:27.370Z,234.07
2022-11-23T09:08:27.325Z,236.07
2022-11-23T09:13:27.230Z,235.40
2022-11-23T09:18:27.245Z,237.09
2022-11-23T09:23:27.108Z,236.75
2022-11-23T09:28:27.071Z,234.90
2022-11-23T09:33:26.987Z,235.91
2022-11-23T09:38:44.790Z,235.74
2022-11-23T09:43:27.849Z,236.75
2022-11-23T09:48:26.822Z,236.41
2022-11-23T09:53:26.714Z,234.41
2022-11-23T09:58:26.665Z,234.07
2022-11-23T10:03:26.588Z,234.90
2022-11-23T10:08:26.538Z,238.45
2022-11-23T10:13:26.467Z,241.22
2022-11-23T10:18:26.395Z,244.24
2022-11-23T10:23:26.316Z,250.89
2022-11-23T10:28:26.268Z,250.13
2022-11-23T10:33:26.181Z,252.61
2022-11-23T10:38:26.138Z,252.23
2022-11-23T10:43:26.065Z,252.61
2022-11-23T10:48:26.003Z,246.05
2022-11-23T10:53:25.923Z,244.42
2022-11-23T10:58:25.875Z,240.52
2022-11-23T11:03:25.797Z,241.22
2022-11-23T11:08:25.730Z,236.92
2022-11-23T11:13:25.659Z,235.24
2022-11-23T11:18:25.627Z,233.09
2022-11-23T11:23:25.523Z,227.03
2022-11-23T11:28:25.506Z,223.51
2022-11-23T11:33:25.387Z,221.72
2022-11-23T11:38:25.339Z,213.86
2022-11-23T11:43:32.415Z,215.95
2022-11-23T11:48:26.216Z,219.08
2022-11-23T11:53:25.159Z,223.36
2022-11-23T11:58:25.072Z,224.12
2022-11-23T12:03:24.999Z,226.41
2022-11-23T12:08:24.947Z,231.46
2022-11-23T12:13:24.872Z,233.25
2022-11-23T12:18:24.810Z,234.57
2022-11-23T12:23:24.745Z,235.74
2022-11-23T12:28:24.691Z,240.87
2022-11-23T12:33:24.604Z,240.52
2022-11-23T12:38:24.575Z,248.45
2022-11-23T12:43:24.446Z,254.35
2022-11-23T12:48:24.423Z,258.11
2022-11-23T12:53:24.467Z,260.34
2022-11-23T12:58:24.286Z,257.31
2022-11-23T13:03:24.191Z,259.73
2022-11-23T13:08:24.228Z,254.35
2022-11-23T13:13:24.070Z,255.72
2022-11-23T13:18:24.023Z,254.55
2022-11-23T13:23:23.947Z,253.96
2022-11-23T13:28:23.896Z,257.11
2022-11-23T13:33:28.400Z,257.11
2022-11-23T13:38:24.755Z,258.71
2022-11-23T13:43:23.670Z,257.51
2022-11-23T13:48:55.077Z,260.95
2022-11-23T13:53:24.536Z,265.12
2022-11-23T13:58:23.499Z,266.83
2022-11-23T14:03:23.405Z,267.69
2022-11-23T14:08:23.359Z,267.69
2022-11-23T14:13:23.270Z,267.04
2022-11-23T14:18:23.256Z,269.65
2022-11-23T14:23:23.151Z,270.31
2022-11-23T14:28:23.105Z,273.65
2022-11-23T14:33:23.007Z,272.53
2022-11-23T14:38:22.960Z,267.69
2022-11-23T14:43:22.865Z,266.19
2022-11-23T14:48:22.835Z,264.28
2022-11-23T14:53:22.773Z,261.16
2022-11-23T14:58:22.685Z,261.16
2022-11-23T15:08:23.580Z,258.92
2022-11-23T15:13:22.481Z,256.71
2022-11-23T15:18:22.503Z,256.52
2022-11-23T15:23:22.365Z,258.11
2022-11-23T15:28:22.277Z,254.35
2022-11-23T15:33:22.210Z,252.03
2022-11-23T15:38:23.812Z,252.80
2022-11-23T15:43:22.077Z,253.57
2022-11-23T15:48:22.068Z,255.72
2022-11-23T15:53:21.971Z,254.94
2022-11-23T15:58:21.907Z,255.33
2022-11-23T16:03:23.634Z,261.57
2022-11-23T16:08:21.746Z,261.36
2022-11-23T16:13:21.692Z,258.51
2022-11-23T16:18:21.654Z,255.13
2022-11-23T16:23:21.585Z,251.46
2022-11-23T16:28:21.481Z,247.89
2022-11-23T16:33:21.465Z,247.71
2022-11-23T16:38:21.361Z,243.52
2022-11-23T16:43:21.321Z,239.48
2022-11-23T16:48:21.245Z,233.42
2022-11-23T16:53:21.184Z,229.22
2022-11-23T16:58:21.127Z,225.49
2022-11-23T17:03:21.043Z,221.57
2022-11-23T17:08:23.813Z,218.36
2022-11-23T17:13:20.950Z,216.65
2022-11-23T17:18:20.852Z,219.81
2022-11-23T17:23:20.804Z,222.61
2022-11-23T17:28:20.704Z,223.81
2022-11-23T17:33:20.638Z,223.21
2022-11-23T17:38:20.586Z,222.91
2022-11-23T17:43:20.535Z,222.31
2022-11-23T17:48:20.434Z,222.16
2022-11-23T17:53:24.280Z,220.98
2022-11-23T17:58:21.331Z,218.94
2022-11-23T18:03:20.292Z,216.93
2022-11-23T18:08:20.187Z,214.27
2022-11-23T18:13:20.115Z,213.17
2022-11-23T18:18:20.032Z,211.68
2022-11-23T18:23:19.983Z,213.58
2022-11-23T18:28:19.921Z,215.11
2022-11-23T18:33:19.842Z,214.69
2022-11-23T18:38:20.896Z,217.08
2022-11-23T18:43:19.768Z,220.10
2022-11-23T18:48:19.646Z,220.10
2022-11-23T18:53:19.599Z,218.79
2022-11-23T18:58:19.598Z,216.65
2022-11-23T19:03:19.503Z,216.37
2022-11-23T19:08:19.396Z,216.93
2022-11-23T19:13:19.339Z,216.79
2022-11-23T19:18:19.290Z,215.25
2022-11-23T19:23:19.213Z,214.83
2022-11-23T19:28:19.121Z,214.13
2022-11-23T19:33:19.107Z,214.83
2022-11-23T19:38:18.995Z,213.72
2022-11-23T19:43:18.973Z,212.22
2022-11-23T19:48:18.875Z,213.31
2022-11-23T19:53:18.849Z,211.14
2022-11-23T19:58:18.722Z,211.41
2022-11-23T20:03:18.683Z,211.00
2022-11-23T20:08:18.655Z,211.54
2022-11-23T20:13:18.561Z,211.54
2022-11-23T20:18:18.480Z,212.76
2022-11-23T20:23:18.427Z,210.74
2022-11-23T20:28:18.357Z,211.14
2022-11-23T20:33:18.278Z,211.27
2022-11-23T20:38:18.200Z,213.72
2022-11-23T20:43:18.159Z,212.90
2022-11-23T20:48:18.069Z,211.81
2022-11-23T20:53:18.026Z,213.17
2022-11-23T20:58:18.009Z,214.00
2022-11-23T21:03:17.931Z,215.11
2022-11-23T21:08:23.808Z,216.23
2022-11-23T21:13:18.761Z,215.53
2022-11-23T21:18:17.699Z,218.07
2022-11-23T21:23:17.668Z,217.79
2022-11-23T21:28:17.536Z,218.36
2022-11-23T21:33:17.508Z,218.07
2022-11-23T21:38:17.435Z,218.51
2022-11-23T21:43:17.378Z,219.08
2022-11-23T21:48:17.331Z,219.66
2022-11-23T21:53:17.235Z,220.54
2022-11-23T21:58:17.191Z,220.98
2022-11-23T22:03:17.097Z,221.27
2022-11-23T22:08:32.323Z,221.27
2022-11-23T22:13:17.984Z,221.42
2022-11-23T22:18:16.898Z,222.46
2022-11-23T22:23:16.831Z,223.21
2022-11-23T22:28:16.757Z,223.66
2022-11-23T22:33:16.721Z,227.34
2022-11-23T22:38:16.632Z,229.38
2022-11-23T22:43:16.564Z,227.34
2022-11-23T22:48:16.530Z,226.41
2022-11-23T22:53:16.495Z,225.79
2022-11-23T22:58:16.368Z,225.33
2022-11-23T23:03:16.368Z,227.18
2022-11-23T23:08:16.269Z,227.34
2022-11-23T23:13:16.152Z,225.03
2022-11-23T23:18:16.096Z,225.33
2022-11-23T23:23:16.034Z,225.18
2022-11-23T23:28:15.969Z,221.87
2022-11-23T23:33:15.903Z,221.72
2022-11-23T23:38:15.833Z,224.27
2022-11-23T23:43:15.787Z,226.10
2022-11-23T23:48:15.725Z,224.27
2022-11-23T23:53:15.689Z,223.66
2022-11-23T23:58:15.568Z,222.16
